createdAt,value
2018-12-23T00:02:10.750Z,24.60
2018-12-23T00:05:13.721Z,25.00
2018-12-23T00:08:16.766Z,25.53
2018-12-23T00:11:20.779Z,19.30
2018-12-23T00:14:23.744Z,18.73
2018-12-23T00:17:26.707Z,24.10
2018-12-23T00:20:29.674Z,20.87
2018-12-23T00:23:34.393Z,22.63
2018-12-23T00:26:37.353Z,29.97
2018-12-23T00:29:40.310Z,28.03
2018-12-23T00:32:44.478Z,29.93
2018-12-23T00:35:47.434Z,29.63
2018-12-23T00:38:50.393Z,32.97
2018-12-23T00:41:53.360Z,24.63
2018-12-23T00:44:56.314Z,27.73
2018-12-23T00:47:59.326Z,26.57
2018-12-23T00:51:02.284Z,25.57
2018-12-23T00:54:05.303Z,22.17
2018-12-23T00:57:08.270Z,24.37
2018-12-23T01:00:11.546Z,27.60
2018-12-23T01:03:14.509Z,21.00
2018-12-23T01:06:17.488Z,29.00
2018-12-23T01:09:20.992Z,27.33
2018-12-23T01:12:23.963Z,27.63
2018-12-23T01:15:26.932Z,29.10
2018-12-23T01:18:29.893Z,21.53
2018-12-23T01:21:32.842Z,23.13
2018-12-23T01:24:35.802Z,23.80
2018-12-23T01:27:38.827Z,22.87
2018-12-23T01:30:41.785Z,26.03
2018-12-23T01:33:44.738Z,20.83
2018-12-23T01:36:47.690Z,25.03
2018-12-23T01:39:50.656Z,23.23
2018-12-23T01:42:53.610Z,26.33
2018-12-23T01:45:56.565Z,27.27
2018-12-23T01:48:59.509Z,26.57
2018-12-23T01:52:02.535Z,30.27
2018-12-23T01:55:05.577Z,34.30
2018-12-23T01:58:08.685Z,39.37
2018-12-23T02:01:11.625Z,37.63
2018-12-23T02:04:14.630Z,31.10
2018-12-23T02:07:17.579Z,31.83
2018-12-23T02:10:20.638Z,32.50
2018-12-23T02:13:23.598Z,30.43
2018-12-23T02:16:26.603Z,34.90
2018-12-23T02:19:30.791Z,28.30
2018-12-23T02:22:34.375Z,33.07
2018-12-23T02:25:37.346Z,33.87
2018-12-23T02:28:40.328Z,34.57
2018-12-23T02:31:43.270Z,36.37
2018-12-23T02:34:46.329Z,35.23
2018-12-23T02:37:49.838Z,44.63
2018-12-23T02:40:52.842Z,46.07
2018-12-23T02:43:55.798Z,48.63
2018-12-23T02:46:58.878Z,37.70
2018-12-23T02:50:01.898Z,43.43
2018-12-23T02:53:04.955Z,49.00
2018-12-23T02:56:07.946Z,46.03
2018-12-23T02:59:10.930Z,46.00
2018-12-23T03:02:13.971Z,48.67
2018-12-23T03:05:16.970Z,49.80
2018-12-23T03:08:19.948Z,58.53
2018-12-23T03:11:22.935Z,44.37
2018-12-23T03:14:25.899Z,43.20
2018-12-23T03:17:28.938Z,45.40
2018-12-23T03:20:31.897Z,45.93
2018-12-23T03:23:34.893Z,37.30
2018-12-23T03:26:38.038Z,45.27
2018-12-23T03:29:41.053Z,44.90
2018-12-23T03:32:44.021Z,49.27
2018-12-23T03:35:47.053Z,44.47
2018-12-23T03:38:50.006Z,55.30
2018-12-23T03:41:53.135Z,49.90
2018-12-23T03:44:56.137Z,60.97
2018-12-23T03:47:59.130Z,60.47
2018-12-23T03:51:02.082Z,54.27
2018-12-23T03:54:05.166Z,74.80
2018-12-23T03:57:08.139Z,60.57
2018-12-23T04:00:11.138Z,52.40
2018-12-23T04:03:14.265Z,50.67
2018-12-23T04:06:24.413Z,52.87
2018-12-23T04:09:22.806Z,49.60
2018-12-23T04:12:26.034Z,54.17
2018-12-23T04:15:29.346Z,50.33
2018-12-23T04:18:32.526Z,47.80
2018-12-23T04:21:35.690Z,53.37
2018-12-23T04:24:38.872Z,45.37
2018-12-23T04:27:42.079Z,49.83
2018-12-23T04:30:45.273Z,42.77
2018-12-23T04:33:48.469Z,38.03
2018-12-23T04:36:51.663Z,37.03
2018-12-23T04:39:54.862Z,38.27
2018-12-23T04:42:58.053Z,44.30
2018-12-23T04:46:01.254Z,48.30
2018-12-23T04:49:04.955Z,43.03
2018-12-23T04:52:08.149Z,45.47
2018-12-23T04:55:11.345Z,45.73
2018-12-23T04:58:14.543Z,43.93
2018-12-23T05:01:17.712Z,40.07
2018-12-23T05:04:20.934Z,32.83
2018-12-23T05:07:24.140Z,43.03
2018-12-23T05:10:27.428Z,38.40
2018-12-23T05:13:30.620Z,41.43
2018-12-23T05:16:33.816Z,37.03
2018-12-23T05:19:37.009Z,35.23
2018-12-23T05:22:40.206Z,27.50
2018-12-23T05:25:43.398Z,35.43
2018-12-23T05:28:46.596Z,35.57
2018-12-23T05:31:49.789Z,30.07
2018-12-23T05:34:53.702Z,32.33
2018-12-23T05:37:56.901Z,30.47
2018-12-23T05:41:00.096Z,33.20
2018-12-23T05:44:03.290Z,29.33
2018-12-23T05:47:06.485Z,31.43
2018-12-23T05:50:09.678Z,34.00
2018-12-23T05:53:12.874Z,27.23
2018-12-23T05:56:16.066Z,29.43
2018-12-23T05:59:19.266Z,33.47
2018-12-23T06:02:22.557Z,32.50
2018-12-23T06:05:25.757Z,28.83
2018-12-23T06:08:28.950Z,34.03
2018-12-23T06:11:32.146Z,31.50
2018-12-23T06:14:35.336Z,25.93
2018-12-23T06:17:38.686Z,35.43
2018-12-23T06:20:41.829Z,33.27
2018-12-23T06:23:45.026Z,34.90
2018-12-23T06:26:48.221Z,36.40
2018-12-23T06:29:51.422Z,24.70
2018-12-23T06:32:54.592Z,35.70
2018-12-23T06:35:57.706Z,37.57
2018-12-23T06:39:00.903Z,48.23
2018-12-23T06:42:04.199Z,37.20
2018-12-23T06:45:07.496Z,40.10
2018-12-23T06:48:10.691Z,39.53
2018-12-23T06:51:13.885Z,33.70
2018-12-23T06:54:17.059Z,33.67
2018-12-23T06:57:20.278Z,25.50
2018-12-23T07:00:23.574Z,37.43
2018-12-23T07:03:26.766Z,41.17
2018-12-23T07:06:29.969Z,33.73
2018-12-23T07:09:33.158Z,36.60
2018-12-23T07:12:36.353Z,30.90
2018-12-23T07:15:39.550Z,40.40
2018-12-23T07:18:42.748Z,44.03
2018-12-23T07:21:45.980Z,36.00
2018-12-23T07:24:49.233Z,34.17
2018-12-23T07:27:52.434Z,33.73
2018-12-23T07:30:55.626Z,41.20
2018-12-23T07:33:58.823Z,39.23
2018-12-23T07:37:02.019Z,39.50
2018-12-23T07:40:05.314Z,37.77
2018-12-23T07:43:08.513Z,32.17
2018-12-23T07:46:11.705Z,40.93
2018-12-23T07:49:15.054Z,35.33
2018-12-23T07:52:18.201Z,33.63
2018-12-23T07:55:21.648Z,34.23
2018-12-23T07:58:24.790Z,35.87
2018-12-23T08:01:28.017Z,27.63
2018-12-23T08:04:31.181Z,28.87
2018-12-23T08:07:36.296Z,35.70
2018-12-23T08:10:39.829Z,39.87
2018-12-23T08:13:43.050Z,32.63
2018-12-23T08:16:46.214Z,29.83
2018-12-23T08:19:49.446Z,33.73
2018-12-23T08:22:52.607Z,27.93
2018-12-23T08:25:55.829Z,30.33
2018-12-23T08:28:58.994Z,28.97
2018-12-23T08:32:02.339Z,33.43
2018-12-23T08:35:05.486Z,28.00
2018-12-23T08:38:08.709Z,29.33
2018-12-23T08:41:11.877Z,29.63
2018-12-23T08:44:15.757Z,29.23
2018-12-23T08:47:18.881Z,28.87
2018-12-23T08:50:22.111Z,38.47
2018-12-23T08:53:25.273Z,27.20
2018-12-23T08:56:28.618Z,33.37
2018-12-23T08:59:31.766Z,21.77
2018-12-23T09:02:34.994Z,14.37
2018-12-23T09:05:38.158Z,24.97
2018-12-23T09:08:41.610Z,24.73
2018-12-23T09:11:45.059Z,26.17
2018-12-23T09:14:48.286Z,21.50
2018-12-23T09:17:51.459Z,23.73
2018-12-23T09:20:54.974Z,20.33
2018-12-23T09:23:58.146Z,19.70
2018-12-23T09:27:01.370Z,26.03
2018-12-23T09:30:05.457Z,28.33
2018-12-23T09:33:08.801Z,20.57
2018-12-23T09:36:11.949Z,23.43
2018-12-23T09:39:15.277Z,24.37
2018-12-23T09:42:18.442Z,23.40
2018-12-23T09:45:21.674Z,24.60
2018-12-23T09:48:24.830Z,21.43
2018-12-23T09:51:28.058Z,23.13
2018-12-23T09:54:31.222Z,18.60
2018-12-23T09:57:34.570Z,23.87
2018-12-23T10:00:37.717Z,23.67
2018-12-23T10:03:40.954Z,17.43
2018-12-23T10:06:44.179Z,19.13
2018-12-23T10:09:47.496Z,20.07
2018-12-23T10:12:50.475Z,19.87
2018-12-23T10:15:53.554Z,19.53
2018-12-23T10:18:56.530Z,17.40
2018-12-23T10:21:59.527Z,20.73
2018-12-23T10:25:02.639Z,19.17
2018-12-23T10:28:05.611Z,16.10
2018-12-23T10:31:08.578Z,14.23
2018-12-23T10:34:11.613Z,16.50
2018-12-23T10:37:14.587Z,11.93
2018-12-23T10:40:17.559Z,14.43
2018-12-23T10:43:20.659Z,19.60
2018-12-23T10:46:23.667Z,13.55
2018-12-23T10:49:26.717Z,12.00
2018-12-23T10:52:29.685Z,17.50
2018-12-23T10:55:32.687Z,15.28
2018-12-23T10:58:35.678Z,17.27
2018-12-23T11:01:38.696Z,14.43
2018-12-23T11:04:41.666Z,17.50
2018-12-23T11:07:44.671Z,13.97
2018-12-23T11:10:47.718Z,17.02
2018-12-23T11:13:50.855Z,19.93
2018-12-23T11:16:53.824Z,14.67
2018-12-23T11:19:56.818Z,15.67
2018-12-23T11:22:59.796Z,16.07
2018-12-23T11:26:02.944Z,12.23
2018-12-23T11:29:05.911Z,15.20
2018-12-23T11:32:09.375Z,13.33
2018-12-23T11:35:13.467Z,13.53
2018-12-23T11:38:17.272Z,10.03
2018-12-23T11:41:20.383Z,14.63
2018-12-23T11:44:23.360Z,9.47
2018-12-23T11:47:26.371Z,13.23
2018-12-23T11:50:29.340Z,10.47
2018-12-23T11:53:32.307Z,20.20
2018-12-23T11:56:35.483Z,14.23
2018-12-23T11:59:38.999Z,11.23
2018-12-23T12:02:45.678Z,15.90
2018-12-23T12:05:48.875Z,12.77
2018-12-23T12:08:52.172Z,12.20
2018-12-23T12:11:55.363Z,11.55
2018-12-23T12:14:58.555Z,16.17
2018-12-23T12:18:01.856Z,12.40
2018-12-23T12:21:05.043Z,13.27
2018-12-23T12:24:08.246Z,13.67
2018-12-23T12:27:11.439Z,11.33
2018-12-23T12:30:14.838Z,13.17
2018-12-23T12:33:18.036Z,15.17
2018-12-23T12:36:21.232Z,6.10
2018-12-23T12:39:24.427Z,10.83
2018-12-23T12:42:27.615Z,7.83
2018-12-23T12:45:30.814Z,13.73
2018-12-23T12:48:34.015Z,13.03
2018-12-23T12:51:37.291Z,10.67
2018-12-23T12:54:40.509Z,15.60
2018-12-23T12:57:43.794Z,11.60
2018-12-23T13:00:46.995Z,20.87
2018-12-23T13:03:50.417Z,17.93
2018-12-23T13:06:53.592Z,14.63
2018-12-23T13:09:56.778Z,15.80
2018-12-23T13:13:00.592Z,17.83
2018-12-23T13:16:03.890Z,12.03
2018-12-23T13:19:07.088Z,14.50
2018-12-23T13:22:10.285Z,15.13
2018-12-23T13:25:13.468Z,16.80
2018-12-23T13:28:16.666Z,16.37
2018-12-23T13:31:19.963Z,13.57
2018-12-23T13:34:23.307Z,10.53
2018-12-23T13:37:26.583Z,13.97
2018-12-23T13:40:46.982Z,17.83
2018-12-23T13:44:15.030Z,12.90
2018-12-23T13:47:33.312Z,17.17
2018-12-23T13:52:57.230Z,16.80
2018-12-23T13:58:15.599Z,16.97
2018-12-23T14:01:29.892Z,10.40
2018-12-23T14:05:46.107Z,12.70
2018-12-23T14:08:58.198Z,12.60
2018-12-23T14:12:01.407Z,10.37
2018-12-23T14:15:04.791Z,13.03
2018-12-23T14:18:08.026Z,17.90
2018-12-23T14:21:11.183Z,10.33
2018-12-23T14:24:14.410Z,16.27
2018-12-23T14:27:17.566Z,16.07
2018-12-23T14:30:20.771Z,16.23
2018-12-23T14:33:24.034Z,19.87
2018-12-23T14:36:27.263Z,14.37
2018-12-23T14:39:30.482Z,13.50
2018-12-23T14:42:33.652Z,12.27
2018-12-23T14:45:36.878Z,17.90
2018-12-23T14:48:40.039Z,19.87
2018-12-23T14:51:43.470Z,20.53
2018-12-23T14:54:46.735Z,14.87
2018-12-23T14:57:49.966Z,18.20
2018-12-23T15:00:53.104Z,25.60
2018-12-23T15:03:56.395Z,14.30
2018-12-23T15:07:00.643Z,16.90
2018-12-23T15:10:04.291Z,20.03
2018-12-23T15:13:08.590Z,14.87
2018-12-23T15:16:11.894Z,19.77
2018-12-23T15:19:15.262Z,24.83
2018-12-23T15:22:18.503Z,21.23
2018-12-23T15:25:21.655Z,22.23
2018-12-23T15:28:24.879Z,20.93
2018-12-23T15:31:28.042Z,17.20
2018-12-23T15:34:31.239Z,16.73
2018-12-23T15:37:35.275Z,19.70
2018-12-23T15:40:38.446Z,25.03
2018-12-23T15:43:41.707Z,20.20
2018-12-23T15:46:45.023Z,20.83
2018-12-23T15:49:48.383Z,28.67
2018-12-23T15:52:52.700Z,25.67
2018-12-23T15:55:55.890Z,32.53
2018-12-23T15:58:59.251Z,43.83
2018-12-23T16:02:02.447Z,40.63
2018-12-23T16:05:05.662Z,22.27
2018-12-23T16:08:08.957Z,15.20
2018-12-23T16:11:12.158Z,16.57
2018-12-23T16:14:15.452Z,13.97
2018-12-23T16:17:18.641Z,23.07
2018-12-23T16:20:22.021Z,20.47
2018-12-23T16:23:25.238Z,21.90
2018-12-23T16:26:29.076Z,25.37
2018-12-23T16:29:32.351Z,33.63
2018-12-23T16:32:35.542Z,33.97
2018-12-23T16:35:38.842Z,34.97
2018-12-23T16:38:42.034Z,34.43
2018-12-23T16:41:45.256Z,42.87
2018-12-23T16:44:48.423Z,27.00
2018-12-23T16:47:51.617Z,44.63
2018-12-23T16:50:55.749Z,38.80
2018-12-23T16:53:59.146Z,29.67
2018-12-23T16:57:02.990Z,33.70
2018-12-23T17:00:09.166Z,41.67
2018-12-23T17:03:12.411Z,36.60
2018-12-23T17:06:15.605Z,34.13
2018-12-23T17:09:18.814Z,42.00
2018-12-23T17:12:22.405Z,36.37
2018-12-23T17:15:26.425Z,38.07
2018-12-23T17:18:34.466Z,50.27
2018-12-23T17:21:44.011Z,38.13
2018-12-23T17:24:47.169Z,30.57
2018-12-23T17:27:50.750Z,35.67
2018-12-23T17:30:57.027Z,34.30
2018-12-23T17:34:00.229Z,36.93
2018-12-23T17:37:03.565Z,37.50
2018-12-23T17:40:07.139Z,23.63
2018-12-23T17:43:10.332Z,16.07
2018-12-23T17:46:13.526Z,19.43
2018-12-23T17:49:16.984Z,10.87
2018-12-23T17:52:23.281Z,10.97
2018-12-23T17:55:25.673Z,7.30
2018-12-23T17:58:28.881Z,10.97
2018-12-23T18:01:32.233Z,5.00
2018-12-23T18:04:35.500Z,9.23
2018-12-23T18:07:38.870Z,8.00
2018-12-23T18:10:42.701Z,6.73
2018-12-23T18:13:45.965Z,7.40
2018-12-23T18:16:49.337Z,7.80
2018-12-23T18:19:52.683Z,5.93
2018-12-23T18:22:55.862Z,4.83
2018-12-23T18:25:59.063Z,4.40
2018-12-23T18:29:02.310Z,9.80
2018-12-23T18:32:05.550Z,11.43
2018-12-23T18:35:09.098Z,7.73
2018-12-23T18:38:12.450Z,6.63
2018-12-23T18:41:15.835Z,8.40
2018-12-23T18:44:21.378Z,8.30
2018-12-23T18:47:24.926Z,5.47
2018-12-23T18:50:28.306Z,6.20
2018-12-23T18:53:31.498Z,12.60
2018-12-23T18:56:39.070Z,3.67
2018-12-23T18:59:45.138Z,9.87
2018-12-23T19:02:51.527Z,12.97
2018-12-23T19:05:54.826Z,14.10
2018-12-23T19:09:07.106Z,18.80
2018-12-23T19:12:22.570Z,14.03
2018-12-23T19:15:38.509Z,12.87
2018-12-23T19:18:55.750Z,11.70
2018-12-23T19:24:19.146Z,8.97
2018-12-23T19:27:33.818Z,9.20
2018-12-23T19:30:50.074Z,10.30
2018-12-23T19:34:43.966Z,6.40
2018-12-23T19:38:28.049Z,9.80
2018-12-23T19:41:43.043Z,5.27
2018-12-23T19:47:04.674Z,7.70
2018-12-23T19:50:19.634Z,6.80
2018-12-23T19:53:45.530Z,7.10
2018-12-23T19:57:02.449Z,8.17
2018-12-23T20:01:15.529Z,5.77
2018-12-23T20:04:32.396Z,9.23
2018-12-23T20:07:51.330Z,4.03
2018-12-23T20:11:11.250Z,4.47
2018-12-23T20:14:36.361Z,7.53
2018-12-23T20:17:53.409Z,7.80
2018-12-23T20:22:14.294Z,6.97
2018-12-23T20:26:29.169Z,5.47
2018-12-23T20:29:44.345Z,5.37
2018-12-23T20:33:08.378Z,5.73
2018-12-23T20:37:21.565Z,6.27
2018-12-23T20:42:48.875Z,8.27
2018-12-23T20:46:03.823Z,6.23
2018-12-23T20:49:39.877Z,5.20
2018-12-23T20:53:08.058Z,7.20
2018-12-23T20:56:39.926Z,11.13
2018-12-23T21:00:11.382Z,4.63
2018-12-23T21:03:40.873Z,4.93
2018-12-23T21:06:56.894Z,6.03
2018-12-23T21:11:15.946Z,6.07
2018-12-23T21:14:30.013Z,5.37
2018-12-23T21:17:44.368Z,5.53
2018-12-23T21:20:58.658Z,7.27
2018-12-23T21:24:19.987Z,7.97
2018-12-23T21:27:35.952Z,7.73
2018-12-23T21:31:04.533Z,10.40
2018-12-23T21:34:18.578Z,5.80
2018-12-23T21:37:44.406Z,8.50
2018-12-23T21:41:35.813Z,6.17
2018-12-23T21:44:58.454Z,4.93
2018-12-23T21:48:13.049Z,7.10
2018-12-23T21:51:41.240Z,5.37
2018-12-23T21:54:56.004Z,6.30
2018-12-23T21:58:10.042Z,6.93
2018-12-23T22:03:28.406Z,7.13
2018-12-23T22:07:42.185Z,6.83
2018-12-23T22:11:33.280Z,4.60
2018-12-23T22:14:36.546Z,2.80
2018-12-23T22:17:39.528Z,3.37
2018-12-23T22:20:42.470Z,3.47
2018-12-23T22:23:45.845Z,5.30
2018-12-23T22:26:48.788Z,2.10
2018-12-23T22:29:51.771Z,2.67
2018-12-23T22:32:54.714Z,3.63
2018-12-23T22:35:57.678Z,4.90
2018-12-23T22:39:00.662Z,3.43
2018-12-23T22:42:03.627Z,5.93
2018-12-23T22:45:06.695Z,6.13
2018-12-23T22:48:09.838Z,4.60
2018-12-23T22:51:12.790Z,3.20
2018-12-23T22:54:15.755Z,3.63
2018-12-23T22:57:18.832Z,4.50
2018-12-23T23:00:27.342Z,5.07
2018-12-23T23:03:30.332Z,11.93
2018-12-23T23:06:33.473Z,16.37
2018-12-23T23:09:36.447Z,18.87
2018-12-23T23:12:39.485Z,26.73
2018-12-23T23:15:42.486Z,21.67
2018-12-23T23:18:45.538Z,30.27
2018-12-23T23:21:48.553Z,26.23
2018-12-23T23:24:51.504Z,23.87
2018-12-23T23:27:54.530Z,33.43
2018-12-23T23:30:57.470Z,26.77
2018-12-23T23:34:00.435Z,35.73
2018-12-23T23:37:03.397Z,27.90
2018-12-23T23:40:06.373Z,31.33
2018-12-23T23:43:10.209Z,22.27
2018-12-23T23:46:13.276Z,25.43
2018-12-23T23:49:16.206Z,19.17
2018-12-23T23:52:19.158Z,19.57
2018-12-23T23:55:22.095Z,19.33
2018-12-23T23:58:25.014Z,21.20
